Time;durP1;ratioP1;P1;durP2;ratioP2;P2;SDS_P1;SDS_P2;PMS_P1;PMS_P2;Temp;Humidity;BMP_temperature;BMP_pressure;BME280_temperature;BME280_humidity;BME280_pressure;Samples;Min_cycle;Max_cycle;Signal;HPM_P1;HPM_P2
2023/06/18 00:01:23;;;;;;;57.30;3.23;;;;;;;;;;5072737;28;20454;-69
2023/06/18 00:03:50;;;;;;;57.17;2.60;;;;;;;;;;5072582;28;20474;-68
2023/06/18 00:06:17;;;;;;;58.07;3.30;;;;;;;;;;5072546;28;20470;-69
2023/06/18 00:08:44;;;;;;;57.67;2.87;;;;;;;;;;5072389;28;20459;-69
2023/06/18 00:11:11;;;;;;;57.37;3.10;;;;;;;;;;5072810;28;20450;-69
2023/06/18 00:13:40;;;;;;;57.30;2.77;;;;;;;;;;5071521;28;20854;-69
2023/06/18 00:16:07;;;;;;;57.10;2.47;;;;;;;;;;5072581;28;20462;-69
2023/06/18 00:18:34;;;;;;;57.60;2.80;;;;;;;;;;5072158;28;20462;-68
2023/06/18 00:21:07;;;;;;;57.90;3.13;;;;;;;;;;5072674;28;20870;-69
2023/06/18 00:23:34;;;;;;;57.00;2.50;;;;;;;;;;5072369;28;20976;-68
2023/06/18 00:26:01;;;;;;;56.97;2.47;;;;;;;;;;5072518;28;20451;-69
2023/06/18 00:28:29;;;;;;;57.80;3.10;;;;;;;;;;5072647;28;20470;-66
2023/06/18 00:30:58;;;;;;;58.20;3.73;;;;;;;;;;5072062;28;20447;-68
2023/06/18 00:33:25;;;;;;;57.33;2.47;;;;;;;;;;5072227;28;20486;-69
2023/06/18 00:35:57;;;;;;;57.10;2.20;;;;;;;;;;5072126;28;20443;-69
2023/06/18 00:38:24;;;;;;;57.40;2.80;;;;;;;;;;5072471;28;20439;-69
2023/06/18 00:40:51;;;;;;;57.60;2.50;;;;;;;;;;5071367;28;20452;-69
2023/06/18 00:43:19;;;;;;;57.57;2.90;;;;;;;;;;5072019;28;20980;-68
2023/06/18 00:45:46;;;;;;;57.37;2.97;;;;;;;;;;5070857;28;20449;-69
2023/06/18 00:48:16;;;;;;;58.40;3.47;;;;;;;;;;5069757;28;20466;-68
2023/06/18 00:50:44;;;;;;;58.77;2.90;;;;;;;;;;5063188;28;20450;-69
2023/06/18 00:53:12;;;;;;;57.50;2.80;;;;;;;;;;5071870;28;20574;-69
2023/06/18 00:55:39;;;;;;;57.10;2.30;;;;;;;;;;5071747;28;20463;-67
2023/06/18 00:58:07;;;;;;;57.07;2.57;;;;;;;;;;5072017;28;20451;-68
2023/06/18 01:00:34;;;;;;;57.37;2.67;;;;;;;;;;5071360;28;20513;-68
2023/06/18 01:03:02;;;;;;;57.27;2.50;;;;;;;;;;5071636;28;20475;-68
2023/06/18 01:05:31;;;;;;;57.17;2.00;;;;;;;;;;5071674;28;20458;-67
2023/06/18 01:08:00;;;;;;;57.60;2.63;;;;;;;;;;5071560;28;20458;-69
2023/06/18 01:10:29;;;;;;;58.10;2.70;;;;;;;;;;5070939;28;20443;-69
2023/06/18 01:12:58;;;;;;;61.73;2.57;;;;;;;;;;5071561;28;20490;-68
2023/06/18 01:15:26;;;;;;;57.67;3.10;;;;;;;;;;5071678;28;20538;-70
2023/06/18 01:17:56;;;;;;;57.73;2.67;;;;;;;;;;5071751;28;20455;-69
2023/06/18 01:20:25;;;;;;;58.10;2.47;;;;;;;;;;5070931;28;20455;-68
2023/06/18 01:22:59;;;;;;;57.57;2.97;;;;;;;;;;5071251;28;20991;-68
2023/06/18 01:25:27;;;;;;;58.17;3.17;;;;;;;;;;5071142;28;20788;-68
2023/06/18 01:27:54;;;;;;;57.03;2.20;;;;;;;;;;5071225;28;20501;-69
2023/06/18 01:30:22;;;;;;;58.57;3.23;;;;;;;;;;5070739;28;20867;-69
2023/06/18 01:32:49;;;;;;;57.27;2.53;;;;;;;;;;5071290;28;20498;-69
2023/06/18 01:35:16;;;;;;;59.67;2.60;;;;;;;;;;5071310;28;20451;-68
2023/06/18 01:37:45;;;;;;;57.43;2.67;;;;;;;;;;5071210;28;20521;-69
2023/06/18 01:40:21;;;;;;;57.50;2.70;;;;;;;;;;5070612;28;20470;-68
2023/06/18 01:42:53;;;;;;;57.70;2.80;;;;;;;;;;5071107;28;20471;-69
2023/06/18 01:45:23;;;;;;;57.50;3.03;;;;;;;;;;5071213;28;20828;-69
2023/06/18 01:47:50;;;;;;;58.17;2.77;;;;;;;;;;5071369;28;20447;-69
2023/06/18 01:50:18;;;;;;;57.70;2.90;;;;;;;;;;5070320;28;20447;-69
2023/06/18 01:52:46;;;;;;;57.40;2.20;;;;;;;;;;5068040;28;20487;-69
2023/06/18 01:55:17;;;;;;;58.17;3.23;;;;;;;;;;5070841;28;20447;-68
2023/06/18 01:57:44;;;;;;;57.53;2.60;;;;;;;;;;5070897;28;20960;-69
2023/06/18 02:00:11;;;;;;;56.97;2.50;;;;;;;;;;5070371;28;20878;-68
2023/06/18 02:02:38;;;;;;;57.00;2.40;;;;;;;;;;5071091;28;20913;-69
2023/06/18 02:05:06;;;;;;;57.33;2.40;;;;;;;;;;5071220;28;20462;-68
2023/06/18 02:07:33;;;;;;;57.13;2.27;;;;;;;;;;5070940;28;20447;-68
2023/06/18 02:10:00;;;;;;;57.70;2.90;;;;;;;;;;5070472;28;20451;-69
2023/06/18 02:12:29;;;;;;;57.80;3.37;;;;;;;;;;5070494;28;20500;-69
2023/06/18 02:14:56;;;;;;;57.37;2.57;;;;;;;;;;5071050;28;20447;-68
2023/06/18 02:17:23;;;;;;;57.97;3.10;;;;;;;;;;5070915;28;20466;-69
2023/06/18 02:19:50;;;;;;;57.57;2.57;;;;;;;;;;5070352;28;20932;-69
2023/06/18 02:22:17;;;;;;;57.30;2.53;;;;;;;;;;5070736;28;20447;-69
2023/06/18 02:24:45;;;;;;;57.07;3.00;;;;;;;;;;5070996;28;20470;-68
2023/06/18 02:27:12;;;;;;;57.07;2.43;;;;;;;;;;5070722;28;20542;-69
2023/06/18 02:29:42;;;;;;;58.57;3.20;;;;;;;;;;5070516;28;20450;-69
2023/06/18 02:32:09;;;;;;;57.20;2.67;;;;;;;;;;5070878;28;20832;-68
2023/06/18 02:34:37;;;;;;;57.37;2.63;;;;;;;;;;5070832;28;20485;-68
2023/06/18 02:37:06;;;;;;;58.57;3.63;;;;;;;;;;5072815;28;20486;-68
2023/06/18 02:39:33;;;;;;;57.23;2.37;;;;;;;;;;5073890;28;20454;-68
2023/06/18 02:42:01;;;;;;;57.50;2.63;;;;;;;;;;5074567;28;20451;-68
2023/06/18 02:44:28;;;;;;;57.17;2.30;;;;;;;;;;5074585;28;20466;-69
2023/06/18 02:46:57;;;;;;;57.53;2.77;;;;;;;;;;5071951;28;20588;-68
2023/06/18 02:49:24;;;;;;;57.43;2.70;;;;;;;;;;5073406;28;20447;-69
2023/06/18 02:51:51;;;;;;;57.67;2.80;;;;;;;;;;5074045;28;20546;-69
2023/06/18 02:54:18;;;;;;;57.17;2.63;;;;;;;;;;5074159;28;20491;-68
2023/06/18 02:56:45;;;;;;;57.43;3.00;;;;;;;;;;5073832;28;20462;-69
2023/06/18 02:59:12;;;;;;;58.37;4.40;;;;;;;;;;5073521;28;20447;-68
2023/06/18 03:01:39;;;;;;;57.17;2.60;;;;;;;;;;5074019;28;20447;-69
2023/06/18 03:04:09;;;;;;;57.20;2.67;;;;;;;;;;5073974;28;20502;-69
2023/06/18 03:06:36;;;;;;;57.80;2.93;;;;;;;;;;5074190;28;20451;-69
2023/06/18 03:09:04;;;;;;;57.20;2.37;;;;;;;;;;5073447;28;20508;-69
2023/06/18 03:11:31;;;;;;;57.20;2.50;;;;;;;;;;5073921;28;20459;-68
2023/06/18 03:13:58;;;;;;;56.97;2.00;;;;;;;;;;5074019;28;20494;-69
2023/06/18 03:16:26;;;;;;;57.17;2.50;;;;;;;;;;5073973;28;20451;-68
2023/06/18 03:18:53;;;;;;;57.57;3.07;;;;;;;;;;5073055;28;20455;-68
2023/06/18 03:21:21;;;;;;;57.20;2.60;;;;;;;;;;5073833;28;20459;-69
2023/06/18 03:23:49;;;;;;;56.93;2.40;;;;;;;;;;5073634;28;20467;-69
2023/06/18 03:26:16;;;;;;;57.30;2.37;;;;;;;;;;5073455;28;21011;-68
2023/06/18 03:28:43;;;;;;;57.10;2.37;;;;;;;;;;5072977;28;20501;-68
2023/06/18 03:31:10;;;;;;;57.23;2.70;;;;;;;;;;5073522;28;20443;-69
2023/06/18 03:33:37;;;;;;;57.60;2.63;;;;;;;;;;5073311;28;20987;-68
2023/06/18 03:36:05;;;;;;;57.17;2.20;;;;;;;;;;5073234;28;20448;-69
2023/06/18 03:38:34;;;;;;;57.40;2.80;;;;;;;;;;5073092;28;20453;-69
2023/06/18 03:41:01;;;;;;;57.27;2.30;;;;;;;;;;5073263;28;20451;-69
2023/06/18 03:43:28;;;;;;;57.93;2.67;;;;;;;;;;5073468;28;20463;-69
2023/06/18 03:45:55;;;;;;;57.23;2.37;;;;;;;;;;5073435;28;20443;-69
2023/06/18 03:48:22;;;;;;;57.27;2.80;;;;;;;;;;5072905;28;20447;-68
2023/06/18 03:50:49;;;;;;;57.03;2.50;;;;;;;;;;5072887;28;20447;-69
2023/06/18 03:53:16;;;;;;;57.27;2.60;;;;;;;;;;5073320;28;20487;-68
2023/06/18 03:55:46;;;;;;;57.30;2.63;;;;;;;;;;5073001;28;20456;-69
2023/06/18 03:58:13;;;;;;;57.60;2.73;;;;;;;;;;5073152;28;20508;-69
2023/06/18 04:00:40;;;;;;;62.13;3.27;;;;;;;;;;5072268;28;20450;-69
2023/06/18 04:03:07;;;;;;;56.97;2.30;;;;;;;;;;5072763;28;20494;-69
2023/06/18 04:05:35;;;;;;;57.27;2.77;;;;;;;;;;5073023;28;20444;-69
2023/06/18 04:08:02;;;;;;;57.20;2.40;;;;;;;;;;5073159;28;20447;-69
2023/06/18 04:10:29;;;;;;;57.30;2.77;;;;;;;;;;5072209;28;20534;-68
2023/06/18 04:12:57;;;;;;;57.57;3.13;;;;;;;;;;5072643;28;20474;-69
2023/06/18 04:15:24;;;;;;;57.20;2.30;;;;;;;;;;5072744;28;20843;-68
2023/06/18 04:17:51;;;;;;;57.60;2.33;;;;;;;;;;5073132;28;20539;-69
2023/06/18 04:20:18;;;;;;;57.53;2.90;;;;;;;;;;5072029;28;20448;-68
2023/06/18 04:22:45;;;;;;;57.90;3.57;;;;;;;;;;5072720;28;20470;-69
2023/06/18 04:25:12;;;;;;;57.87;3.20;;;;;;;;;;5072660;28;20447;-69
2023/06/18 04:27:40;;;;;;;56.87;2.23;;;;;;;;;;5072337;28;20443;-69
2023/06/18 04:30:09;;;;;;;57.67;2.63;;;;;;;;;;5071970;28;20541;-69
2023/06/18 04:32:36;;;;;;;57.13;2.60;;;;;;;;;;5072233;28;20936;-69
2023/06/18 04:35:04;;;;;;;56.97;2.70;;;;;;;;;;5072480;28;20866;-69
2023/06/18 04:37:32;;;;;;;57.00;2.53;;;;;;;;;;5072017;28;20963;-69
2023/06/18 04:39:59;;;;;;;57.60;3.63;;;;;;;;;;5071425;28;20940;-69
2023/06/18 04:42:26;;;;;;;56.97;3.00;;;;;;;;;;5072188;28;20451;-69
2023/06/18 04:44:53;;;;;;;57.07;2.70;;;;;;;;;;5072375;28;20458;-69
2023/06/18 04:47:21;;;;;;;57.60;2.90;;;;;;;;;;5069302;28;20459;-69
2023/06/18 04:49:49;;;;;;;57.30;2.50;;;;;;;;;;5071326;28;20452;-69
2023/06/18 04:52:16;;;;;;;56.90;2.60;;;;;;;;;;5071768;28;20459;-68
2023/06/18 04:54:43;;;;;;;56.90;2.20;;;;;;;;;;5063797;28;20767;-69
2023/06/18 04:57:10;;;;;;;57.07;2.33;;;;;;;;;;5071457;28;20459;-69
2023/06/18 04:59:38;;;;;;;56.93;2.30;;;;;;;;;;5070469;28;20447;-68
2023/06/18 05:02:05;;;;;;;56.93;2.20;;;;;;;;;;5072038;28;20452;-68
2023/06/18 05:04:34;;;;;;;56.97;2.60;;;;;;;;;;5071922;28;20463;-68
2023/06/18 05:07:01;;;;;;;57.10;2.47;;;;;;;;;;5071557;28;20450;-69
2023/06/18 05:09:28;;;;;;;57.10;2.50;;;;;;;;;;5071151;28;20473;-68
2023/06/18 05:11:55;;;;;;;56.73;2.10;;;;;;;;;;5071541;28;20454;-69
2023/06/18 05:14:22;;;;;;;56.87;2.40;;;;;;;;;;5071345;28;20483;-69
2023/06/18 05:16:49;;;;;;;57.17;2.50;;;;;;;;;;5071739;28;20458;-69
2023/06/18 05:19:16;;;;;;;57.80;2.70;;;;;;;;;;5071027;28;20447;-68
2023/06/18 05:21:45;;;;;;;57.17;2.57;;;;;;;;;;5071430;28;20451;-69
2023/06/18 05:24:12;;;;;;;57.20;2.77;;;;;;;;;;5071235;28;20504;-69
2023/06/18 05:26:39;;;;;;;56.97;2.37;;;;;;;;;;5071532;28;20451;-68
2023/06/18 05:29:06;;;;;;;59.40;5.17;;;;;;;;;;5070886;28;20856;-69
2023/06/18 05:31:33;;;;;;;57.30;2.73;;;;;;;;;;5071258;28;20948;-69
2023/06/18 05:34:00;;;;;;;56.87;2.50;;;;;;;;;;5071192;28;21197;-69
2023/06/18 05:36:27;;;;;;;57.07;2.30;;;;;;;;;;5071488;28;20447;-69
2023/06/18 05:38:59;;;;;;;57.33;2.83;;;;;;;;;;5070448;28;20791;-69
2023/06/18 05:41:26;;;;;;;57.20;2.50;;;;;;;;;;5071553;28;20781;-69
2023/06/18 05:43:53;;;;;;;56.93;2.27;;;;;;;;;;5071385;28;20467;-69
2023/06/18 05:46:20;;;;;;;57.20;2.77;;;;;;;;;;5071238;28;20815;-69
2023/06/18 05:48:47;;;;;;;57.40;3.67;;;;;;;;;;5070955;28;20458;-69
2023/06/18 05:51:14;;;;;;;57.50;2.87;;;;;;;;;;5070898;28;20451;-69
2023/06/18 05:53:41;;;;;;;57.07;2.43;;;;;;;;;;5071426;28;20487;-69
2023/06/18 05:56:10;;;;;;;57.10;3.00;;;;;;;;;;5070960;28;20463;-69
2023/06/18 05:58:37;;;;;;;57.60;3.87;;;;;;;;;;5070581;28;20452;-69
2023/06/18 06:01:05;;;;;;;57.67;3.23;;;;;;;;;;5071055;28;20451;-69
2023/06/18 06:03:32;;;;;;;56.77;2.40;;;;;;;;;;5070969;28;20882;-69
2023/06/18 06:06:01;;;;;;;57.20;2.53;;;;;;;;;;5070996;28;20443;-69
2023/06/18 06:08:28;;;;;;;57.77;3.00;;;;;;;;;;5070964;28;20542;-69
2023/06/18 06:10:55;;;;;;;57.00;2.63;;;;;;;;;;5072796;28;20455;-69
2023/06/18 06:13:23;;;;;;;57.30;3.37;;;;;;;;;;5075149;28;20549;-69
2023/06/18 06:15:50;;;;;;;57.10;2.83;;;;;;;;;;5074822;28;20964;-69
2023/06/18 06:18:17;;;;;;;57.30;2.57;;;;;;;;;;5074796;28;20443;-68
2023/06/18 06:20:45;;;;;;;58.43;3.30;;;;;;;;;;5074440;28;20453;-69
2023/06/18 06:23:12;;;;;;;56.90;2.30;;;;;;;;;;5074999;28;20462;-69
2023/06/18 06:25:40;;;;;;;57.00;2.87;;;;;;;;;;5074653;28;20450;-69
2023/06/18 06:28:07;;;;;;;57.70;3.60;;;;;;;;;;5074688;28;20967;-69
2023/06/18 06:30:36;;;;;;;58.47;2.57;;;;;;;;;;5073962;28;20443;-68
2023/06/18 06:33:03;;;;;;;56.90;2.43;;;;;;;;;;5074380;28;20479;-69
2023/06/18 06:35:31;;;;;;;57.43;2.60;;;;;;;;;;5074714;28;21092;-70
2023/06/18 06:37:58;;;;;;;56.97;2.30;;;;;;;;;;5074693;28;20530;-69
2023/06/18 06:40:25;;;;;;;57.20;2.60;;;;;;;;;;5073876;28;20443;-69
2023/06/18 06:42:52;;;;;;;57.07;2.70;;;;;;;;;;5078749;28;20467;-70
2023/06/18 06:45:19;;;;;;;57.17;2.30;;;;;;;;;;5088725;28;20936;-70
2023/06/18 06:47:48;;;;;;;57.10;2.60;;;;;;;;;;5087324;28;20451;-69
2023/06/18 06:50:15;;;;;;;56.97;2.50;;;;;;;;;;5088408;28;20443;-70
2023/06/18 06:52:42;;;;;;;57.00;2.67;;;;;;;;;;5080498;28;20471;-71
2023/06/18 06:55:10;;;;;;;56.67;2.20;;;;;;;;;;5088205;28;20483;-71
2023/06/18 06:57:37;;;;;;;57.13;3.00;;;;;;;;;;5089526;28;20465;-68
2023/06/18 07:00:06;;;;;;;57.00;2.40;;;;;;;;;;5089269;28;20451;-71
2023/06/18 07:02:34;;;;;;;57.30;3.17;;;;;;;;;;5089637;28;20444;-69
2023/06/18 07:05:02;;;;;;;57.10;2.40;;;;;;;;;;5090500;28;20462;-70
2023/06/18 07:07:29;;;;;;;58.60;3.10;;;;;;;;;;5088782;28;20455;-70
2023/06/18 07:09:57;;;;;;;57.63;2.83;;;;;;;;;;5088914;28;20455;-70
2023/06/18 07:12:24;;;;;;;56.97;2.80;;;;;;;;;;5089269;28;20439;-70
2023/06/18 07:14:51;;;;;;;57.30;3.20;;;;;;;;;;5089657;28;20487;-69
2023/06/18 07:17:18;;;;;;;57.10;2.33;;;;;;;;;;5089524;28;20458;-69
2023/06/18 07:19:45;;;;;;;57.00;2.30;;;;;;;;;;5087931;28;20842;-72
2023/06/18 07:22:13;;;;;;;59.40;3.47;;;;;;;;;;5086342;28;20823;-70
2023/06/18 07:24:41;;;;;;;57.80;2.70;;;;;;;;;;5087661;28;20460;-70
2023/06/18 07:27:08;;;;;;;56.97;2.37;;;;;;;;;;5085510;28;20459;-70
2023/06/18 07:29:35;;;;;;;57.00;2.40;;;;;;;;;;5084674;28;20454;-70
2023/06/18 07:32:02;;;;;;;57.27;2.77;;;;;;;;;;5085767;28;20463;-69
2023/06/18 07:34:29;;;;;;;56.77;2.30;;;;;;;;;;5086767;28;20498;-70
2023/06/18 07:36:57;;;;;;;57.57;3.40;;;;;;;;;;5083650;28;20513;-71
2023/06/18 07:39:26;;;;;;;58.27;3.73;;;;;;;;;;5079386;28;20485;-70
2023/06/18 07:41:54;;;;;;;58.37;3.30;;;;;;;;;;5078706;28;20475;-71
2023/06/18 07:44:21;;;;;;;58.80;2.40;;;;;;;;;;5076880;28;20476;-71
2023/06/18 07:46:48;;;;;;;56.97;2.90;;;;;;;;;;5077003;28;20894;-71
2023/06/18 07:49:16;;;;;;;57.20;3.27;;;;;;;;;;5076661;28;20508;-71
2023/06/18 07:51:43;;;;;;;57.23;2.97;;;;;;;;;;5078193;28;20479;-71
2023/06/18 07:54:10;;;;;;;61.37;2.63;;;;;;;;;;5077858;28;20513;-71
2023/06/18 07:56:39;;;;;;;58.63;3.80;;;;;;;;;;5077917;28;20471;-71
2023/06/18 07:59:06;;;;;;;57.07;2.60;;;;;;;;;;5077867;28;20439;-72
2023/06/18 08:01:33;;;;;;;58.43;3.23;;;;;;;;;;5076773;28;20462;-71
2023/06/18 08:04:00;;;;;;;58.43;2.80;;;;;;;;;;5078895;28;20614;-72
2023/06/18 08:06:27;;;;;;;57.40;3.00;;;;;;;;;;5078830;28;20457;-71
2023/06/18 08:08:54;;;;;;;57.50;3.27;;;;;;;;;;5077841;28;20454;-72
2023/06/18 08:11:21;;;;;;;57.87;3.07;;;;;;;;;;5079504;28;20455;-71
2023/06/18 08:13:50;;;;;;;57.10;3.40;;;;;;;;;;5079070;28;20471;-72
2023/06/18 08:16:18;;;;;;;56.87;2.77;;;;;;;;;;5079247;28;20487;-71
2023/06/18 08:18:45;;;;;;;57.10;2.50;;;;;;;;;;5079821;28;20463;-71
2023/06/18 08:21:12;;;;;;;57.27;2.83;;;;;;;;;;5074386;28;20455;-70
2023/06/18 08:23:39;;;;;;;57.27;2.53;;;;;;;;;;5073966;28;20525;-69
2023/06/18 08:26:06;;;;;;;57.20;2.70;;;;;;;;;;5073815;28;20450;-70
2023/06/18 08:28:33;;;;;;;58.47;3.20;;;;;;;;;;5073103;28;20455;-69
2023/06/18 08:31:02;;;;;;;57.40;2.80;;;;;;;;;;5073978;28;20447;-70
2023/06/18 08:33:29;;;;;;;57.80;2.90;;;;;;;;;;5072788;28;20549;-69
2023/06/18 08:35:56;;;;;;;58.03;3.53;;;;;;;;;;5072741;28;20479;-70
2023/06/18 08:38:23;;;;;;;56.87;2.43;;;;;;;;;;5072284;28;20454;-70
2023/06/18 08:40:51;;;;;;;57.67;3.27;;;;;;;;;;5071155;28;20531;-70
2023/06/18 08:43:22;;;;;;;57.73;3.23;;;;;;;;;;5071516;28;20474;-70
2023/06/18 08:45:52;;;;;;;56.97;2.10;;;;;;;;;;5072518;28;20808;-70
2023/06/18 08:48:21;;;;;;;57.20;2.80;;;;;;;;;;5063970;28;20489;-69
2023/06/18 08:50:50;;;;;;;56.73;2.80;;;;;;;;;;5071342;28;20470;-70
2023/06/18 08:53:20;;;;;;;56.80;2.40;;;;;;;;;;5072252;28;20478;-70
2023/06/18 08:55:47;;;;;;;57.67;2.80;;;;;;;;;;5072478;28;20480;-70
2023/06/18 08:58:18;;;;;;;56.40;2.47;;;;;;;;;;5073019;28;20828;-70
2023/06/18 09:00:48;;;;;;;57.77;3.10;;;;;;;;;;5071283;28;20675;-71
2023/06/18 09:03:16;;;;;;;57.67;2.63;;;;;;;;;;5065179;28;20817;-71
2023/06/18 09:05:45;;;;;;;57.00;2.20;;;;;;;;;;5062464;28;20493;-71
2023/06/18 09:08:12;;;;;;;56.80;2.37;;;;;;;;;;5070752;28;20451;-70
2023/06/18 09:10:40;;;;;;;56.57;2.50;;;;;;;;;;5069963;28;20922;-71
2023/06/18 09:13:07;;;;;;;56.60;2.70;;;;;;;;;;5070757;28;20472;-70
2023/06/18 09:15:34;;;;;;;57.50;2.40;;;;;;;;;;5070128;28;20482;-71
2023/06/18 09:18:01;;;;;;;56.30;2.20;;;;;;;;;;5071308;28;20451;-70
2023/06/18 09:20:28;;;;;;;56.87;2.57;;;;;;;;;;5070590;28;20451;-71
2023/06/18 09:22:56;;;;;;;56.90;2.83;;;;;;;;;;5071438;28;20471;-70
2023/06/18 09:25:24;;;;;;;56.67;2.20;;;;;;;;;;5071244;28;20450;-71
2023/06/18 09:27:51;;;;;;;57.03;2.23;;;;;;;;;;5071240;28;20487;-71
2023/06/18 09:30:19;;;;;;;57.20;2.53;;;;;;;;;;5070534;28;20451;-71
2023/06/18 09:32:47;;;;;;;56.53;2.60;;;;;;;;;;5071383;28;20835;-71
2023/06/18 09:35:15;;;;;;;57.27;2.77;;;;;;;;;;5071409;28;20474;-71
2023/06/18 09:37:42;;;;;;;56.67;2.70;;;;;;;;;;5071296;28;20447;-71
2023/06/18 09:40:15;;;;;;;56.67;2.40;;;;;;;;;;5070559;28;20448;-70
2023/06/18 09:42:42;;;;;;;57.17;2.60;;;;;;;;;;5071433;28;20562;-71
2023/06/18 09:45:10;;;;;;;57.20;3.00;;;;;;;;;;5071022;28;20443;-71
2023/06/18 09:47:38;;;;;;;57.00;2.33;;;;;;;;;;5071250;28;20454;-70
2023/06/18 09:50:06;;;;;;;56.60;2.00;;;;;;;;;;5070505;28;20450;-72
2023/06/18 09:52:42;;;;;;;56.93;2.60;;;;;;;;;;5070938;28;20549;-71
2023/06/18 09:55:26;;;;;;;56.77;2.40;;;;;;;;;;5070952;28;20808;-71
2023/06/18 09:57:53;;;;;;;57.30;2.57;;;;;;;;;;5071117;28;20447;-71
2023/06/18 10:00:21;;;;;;;56.63;2.33;;;;;;;;;;5070597;28;20446;-70
2023/06/18 10:02:48;;;;;;;56.60;2.00;;;;;;;;;;5070918;28;20463;-71
2023/06/18 10:05:15;;;;;;;56.70;2.67;;;;;;;;;;5070939;28;20443;-71
2023/06/18 10:07:42;;;;;;;57.37;2.67;;;;;;;;;;5070846;28;20447;-71
2023/06/18 10:10:13;;;;;;;56.70;2.50;;;;;;;;;;5070442;28;20459;-71
2023/06/18 10:12:42;;;;;;;57.17;2.50;;;;;;;;;;5071057;28;20560;-71
2023/06/18 10:15:10;;;;;;;56.70;2.30;;;;;;;;;;5071019;28;20479;-71
2023/06/18 10:17:39;;;;;;;56.47;2.50;;;;;;;;;;5070679;28;20452;-71
2023/06/18 10:20:08;;;;;;;56.77;2.30;;;;;;;;;;5069945;28;20551;-71
2023/06/18 10:22:36;;;;;;;56.33;2.13;;;;;;;;;;5070719;28;20447;-71
2023/06/18 10:25:04;;;;;;;56.10;1.90;;;;;;;;;;5071015;28;20818;-71
2023/06/18 10:27:32;;;;;;;56.37;2.33;;;;;;;;;;5070614;28;20952;-71
2023/06/18 10:30:00;;;;;;;56.27;2.40;;;;;;;;;;5070307;28;20443;-71
2023/06/18 10:32:30;;;;;;;55.93;2.17;;;;;;;;;;5070736;28;20440;-70
2023/06/18 10:34:59;;;;;;;56.20;2.60;;;;;;;;;;5070881;28;20549;-70
2023/06/18 10:37:27;;;;;;;58.07;2.37;;;;;;;;;;5070989;28;20451;-69
2023/06/18 10:39:55;;;;;;;56.00;2.27;;;;;;;;;;5070205;28;20470;-69
2023/06/18 10:42:22;;;;;;;56.57;2.37;;;;;;;;;;5070557;28;20443;-69
2023/06/18 10:44:55;;;;;;;56.17;2.53;;;;;;;;;;5070602;28;20442;-69
2023/06/18 10:47:24;;;;;;;55.80;2.43;;;;;;;;;;5064169;28;20452;-70
2023/06/18 10:50:15;;;;;;;55.37;2.00;;;;;;;;;;5062629;28;20447;-72
2023/06/18 10:52:43;;;;;;;55.50;2.00;;;;;;;;;;5055161;28;20521;-72
2023/06/18 10:55:12;;;;;;;55.37;1.80;;;;;;;;;;5070229;28;20999;-72
2023/06/18 10:57:40;;;;;;;57.40;3.27;;;;;;;;;;5071712;28;20534;-72
2023/06/18 11:00:25;;;;;;;55.23;2.40;;;;;;;;;;5073320;28;20451;-69
2023/06/18 11:02:58;;;;;;;55.87;2.50;;;;;;;;;;5069422;28;20488;-70
2023/06/18 11:05:45;;;;;;;55.60;1.90;;;;;;;;;;5071257;28;20435;-69
2023/06/18 11:08:13;;;;;;;55.17;2.30;;;;;;;;;;5074194;28;20520;-70
2023/06/18 11:10:42;;;;;;;55.50;2.67;;;;;;;;;;5073208;28;20522;-70
2023/06/18 11:13:09;;;;;;;55.50;2.53;;;;;;;;;;5073790;28;20471;-70
2023/06/18 11:15:37;;;;;;;57.50;3.20;;;;;;;;;;5073955;28;20443;-70
2023/06/18 11:18:05;;;;;;;55.30;2.47;;;;;;;;;;5074014;28;20454;-69
2023/06/18 11:20:33;;;;;;;55.40;2.20;;;;;;;;;;5072982;28;20451;-70
2023/06/18 11:23:01;;;;;;;55.43;2.17;;;;;;;;;;5073684;28;20463;-70
2023/06/18 11:25:28;;;;;;;55.50;3.00;;;;;;;;;;5073736;28;20494;-70
2023/06/18 11:27:58;;;;;;;55.03;2.07;;;;;;;;;;5073938;28;20958;-70
2023/06/18 11:30:25;;;;;;;56.27;2.30;;;;;;;;;;5072790;28;20473;-70
2023/06/18 11:32:52;;;;;;;56.07;2.70;;;;;;;;;;5073801;28;20516;-70
2023/06/18 11:35:21;;;;;;;55.57;2.47;;;;;;;;;;5073676;28;20448;-69
2023/06/18 11:37:48;;;;;;;55.37;2.20;;;;;;;;;;5073415;28;20949;-70
2023/06/18 11:40:15;;;;;;;55.50;2.50;;;;;;;;;;5072821;28;20448;-70
2023/06/18 11:42:52;;;;;;;55.50;2.60;;;;;;;;;;5073507;28;20506;-68
2023/06/18 11:45:20;;;;;;;54.90;2.20;;;;;;;;;;5072986;28;20454;-69
2023/06/18 11:47:48;;;;;;;55.43;2.00;;;;;;;;;;5073154;28;20466;-69
2023/06/18 11:50:15;;;;;;;55.50;2.20;;;;;;;;;;5072622;28;20454;-70
2023/06/18 11:52:46;;;;;;;55.40;2.10;;;;;;;;;;5073181;28;20471;-70
2023/06/18 11:55:14;;;;;;;54.97;2.50;;;;;;;;;;5072871;28;20947;-70
2023/06/18 11:57:41;;;;;;;56.20;2.80;;;;;;;;;;5072961;28;20866;-69
2023/06/18 12:00:10;;;;;;;54.57;1.83;;;;;;;;;;5072474;28;20443;-70
2023/06/18 12:02:39;;;;;;;55.60;2.37;;;;;;;;;;5073130;28;20496;-70
2023/06/18 12:05:07;;;;;;;54.70;2.50;;;;;;;;;;5072893;28;20947;-70
2023/06/18 12:07:34;;;;;;;55.00;2.73;;;;;;;;;;5072742;28;20487;-70
2023/06/18 12:10:09;;;;;;;54.77;2.10;;;;;;;;;;5072260;28;20793;-70
2023/06/18 12:12:40;;;;;;;55.37;2.20;;;;;;;;;;5072891;28;20439;-70
2023/06/18 12:15:12;;;;;;;55.10;2.53;;;;;;;;;;5072660;28;20812;-70
2023/06/18 12:17:47;;;;;;;54.83;2.00;;;;;;;;;;5072873;28;20435;-70
2023/06/18 12:20:14;;;;;;;55.00;2.80;;;;;;;;;;5072085;28;20493;-70
2023/06/18 12:22:42;;;;;;;55.20;2.47;;;;;;;;;;5072726;28;20470;-70
2023/06/18 12:25:11;;;;;;;54.67;2.13;;;;;;;;;;5072346;28;20451;-70
2023/06/18 12:27:38;;;;;;;54.90;1.90;;;;;;;;;;5072292;28;20483;-70
2023/06/18 12:30:06;;;;;;;54.53;1.83;;;;;;;;;;5071954;28;20538;-70
2023/06/18 12:32:33;;;;;;;55.30;2.40;;;;;;;;;;5072422;28;20453;-70
2023/06/18 12:35:10;;;;;;;55.07;2.50;;;;;;;;;;5072397;28;20447;-70
2023/06/18 12:37:37;;;;;;;55.70;2.63;;;;;;;;;;5072179;28;20443;-70
2023/06/18 12:40:14;;;;;;;55.00;2.30;;;;;;;;;;5071547;28;20850;-70
2023/06/18 12:42:41;;;;;;;54.57;1.57;;;;;;;;;;5072322;28;20554;-70
2023/06/18 12:45:08;;;;;;;54.80;1.80;;;;;;;;;;5072189;28;20451;-69
2023/06/18 12:47:39;;;;;;;55.00;2.50;;;;;;;;;;5065919;28;20479;-70
2023/06/18 12:50:07;;;;;;;55.00;1.90;;;;;;;;;;5066397;28;20455;-70
2023/06/18 12:52:39;;;;;;;54.90;2.37;;;;;;;;;;5071894;28;20478;-69
2023/06/18 12:55:12;;;;;;;54.70;2.10;;;;;;;;;;5071933;28;20478;-70
2023/06/18 12:57:43;;;;;;;54.50;2.30;;;;;;;;;;5071839;28;20443;-70
2023/06/18 13:00:16;;;;;;;54.80;2.70;;;;;;;;;;5071130;28;20451;-70
2023/06/18 13:02:43;;;;;;;54.50;2.70;;;;;;;;;;5071896;28;20471;-70
2023/06/18 13:05:10;;;;;;;53.93;2.00;;;;;;;;;;5071722;28;20997;-70
2023/06/18 13:07:38;;;;;;;54.03;2.30;;;;;;;;;;5071824;28;20660;-70
2023/06/18 13:10:06;;;;;;;56.10;2.87;;;;;;;;;;5071126;28;20458;-70
2023/06/18 13:12:34;;;;;;;55.10;2.87;;;;;;;;;;5070906;28;20538;-70
2023/06/18 13:15:01;;;;;;;55.10;2.77;;;;;;;;;;5071364;28;20448;-70
2023/06/18 13:17:29;;;;;;;55.40;2.57;;;;;;;;;;5071628;28;20444;-70
2023/06/18 13:19:56;;;;;;;54.97;2.20;;;;;;;;;;5074029;28;20455;-70
2023/06/18 13:22:23;;;;;;;54.50;2.47;;;;;;;;;;5073126;28;20538;-70
2023/06/18 13:24:52;;;;;;;54.60;2.10;;;;;;;;;;5072695;28;20447;-71
2023/06/18 13:27:19;;;;;;;54.80;2.57;;;;;;;;;;5072517;28;20478;-70
2023/06/18 13:29:47;;;;;;;55.17;2.10;;;;;;;;;;5072166;28;20443;-69
2023/06/18 13:35:18;;;;;;;55.40;2.10;;;;;;;;;;5068758;28;20418;-70
2023/06/18 13:37:45;;;;;;;55.40;2.10;;;;;;;;;;5074380;28;20669;-71
2023/06/18 13:40:12;;;;;;;55.40;2.10;;;;;;;;;;5071993;28;20454;-71
2023/06/18 13:42:39;;;;;;;55.77;2.73;;;;;;;;;;5067324;28;20475;-72
2023/06/18 13:45:08;;;;;;;54.90;1.83;;;;;;;;;;5071898;28;20956;-70
2023/06/18 13:47:36;;;;;;;55.10;2.00;;;;;;;;;;5074497;28;20479;-70
2023/06/18 13:50:03;;;;;;;55.80;2.23;;;;;;;;;;5072004;28;20443;-71
2023/06/18 13:52:31;;;;;;;54.90;1.60;;;;;;;;;;5072284;28;20504;-71
2023/06/18 13:54:58;;;;;;;54.77;1.83;;;;;;;;;;5072137;28;20447;-69
2023/06/18 13:57:25;;;;;;;55.87;2.47;;;;;;;;;;5074429;28;20450;-70
2023/06/18 13:59:52;;;;;;;55.67;2.30;;;;;;;;;;5071712;28;20456;-70
2023/06/18 14:02:20;;;;;;;55.17;2.23;;;;;;;;;;5074219;28;20526;-70
2023/06/18 14:04:48;;;;;;;56.17;3.07;;;;;;;;;;5074619;28;20447;-70
2023/06/18 14:07:15;;;;;;;55.13;1.93;;;;;;;;;;5075796;28;20490;-70
2023/06/18 14:09:42;;;;;;;56.90;2.80;;;;;;;;;;5075378;28;20459;-70
2023/06/18 14:12:10;;;;;;;55.90;2.30;;;;;;;;;;5076619;28;20451;-70
2023/06/18 14:14:37;;;;;;;55.70;1.77;;;;;;;;;;5075066;28;20483;-71
2023/06/18 14:17:09;;;;;;;56.03;2.10;;;;;;;;;;5076106;28;20842;-70
2023/06/18 14:19:38;;;;;;;56.63;2.30;;;;;;;;;;5076196;28;20904;-71
2023/06/18 14:22:06;;;;;;;55.40;1.70;;;;;;;;;;5077837;28;20519;-71
2023/06/18 14:24:34;;;;;;;55.90;2.53;;;;;;;;;;5077159;28;20467;-71
2023/06/18 14:27:02;;;;;;;55.40;1.80;;;;;;;;;;5076836;28;20980;-70
2023/06/18 14:29:31;;;;;;;56.30;2.90;;;;;;;;;;5077149;28;20447;-69
2023/06/18 14:31:58;;;;;;;55.47;1.90;;;;;;;;;;5077918;28;20452;-71
2023/06/18 14:34:26;;;;;;;55.90;2.03;;;;;;;;;;5081356;28;20479;-71
2023/06/18 14:36:55;;;;;;;55.27;2.00;;;;;;;;;;5081369;28;20818;-70
2023/06/18 14:39:22;;;;;;;55.90;2.10;;;;;;;;;;5080957;28;20454;-71